Time;durP1;ratioP1;P1;durP2;ratioP2;P2;SDS_P1;SDS_P2;PMS_P1;PMS_P2;Temp;Humidity;BMP_temperature;BMP_pressure;BME280_temperature;BME280_humidity;BME280_pressure;Samples;Min_cycle;Max_cycle;Signal;HPM_P1;HPM_P2
2024/01/16 00:01:08;;;;;;;136.33;47.87;;;2.50;98.10;;;;;;5098941;28;20230;-81
2024/01/16 00:03:38;;;;;;;170.00;51.90;;;2.50;98.10;;;;;;5113007;28;20199;-81
2024/01/16 00:06:06;;;;;;;184.00;49.17;;;2.40;98.10;;;;;;5079853;28;20552;-81
2024/01/16 00:08:34;;;;;;;201.20;52.50;;;2.40;98.00;;;;;;5095686;28;20208;-81
2024/01/16 00:11:03;;;;;;;257.00;53.80;;;2.30;98.10;;;;;;5099951;28;20200;-81
2024/01/16 00:13:32;;;;;;;196.17;46.57;;;2.30;98.10;;;;;;5088969;28;20598;-81
2024/01/16 00:16:03;;;;;;;178.03;46.87;;;2.20;98.10;;;;;;5085126;28;20211;-81
2024/01/16 00:18:30;;;;;;;100.40;40.73;;;2.20;98.20;;;;;;5094738;28;20305;-81
2024/01/16 00:21:02;;;;;;;119.53;44.27;;;2.10;98.20;;;;;;5076864;28;20243;-81
2024/01/16 00:23:32;;;;;;;106.27;51.07;;;2.10;98.20;;;;;;5098023;28;20220;-82
2024/01/16 00:26:00;;;;;;;89.20;49.33;;;2.00;98.20;;;;;;5107908;28;20203;-82
2024/01/16 00:28:27;;;;;;;136.47;47.40;;;2.00;98.20;;;;;;5096797;28;20207;-82
2024/01/16 00:30:55;;;;;;;207.13;43.33;;;2.00;98.20;;;;;;5082722;28;20211;-82
2024/01/16 00:33:22;;;;;;;125.13;42.27;;;1.90;98.10;;;;;;5072667;28;20200;-82
2024/01/16 00:35:50;;;;;;;142.63;48.27;;;1.90;98.10;;;;;;5099973;28;20249;-82
2024/01/16 00:38:18;;;;;;;163.67;43.17;;;1.90;98.00;;;;;;5094800;28;20249;-82
2024/01/16 00:40:46;;;;;;;196.43;43.60;;;1.90;97.90;;;;;;5077684;28;20219;-82
2024/01/16 00:43:13;;;;;;;379.87;54.90;;;1.80;97.90;;;;;;5094249;28;20224;-82
2024/01/16 00:45:40;;;;;;;120.83;47.47;;;1.80;97.90;;;;;;5098687;28;20218;-82
2024/01/16 00:48:10;;;;;;;101.67;50.00;;;1.80;98.00;;;;;;5079032;28;20289;-82
2024/01/16 00:50:37;;;;;;;93.20;49.20;;;1.80;98.10;;;;;;5065400;28;20204;-82
2024/01/16 00:53:05;;;;;;;126.87;48.30;;;1.70;98.10;;;;;;5069949;28;20200;-83
2024/01/16 00:55:32;;;;;;;119.27;51.17;;;1.70;98.10;;;;;;5071856;28;20227;-82
2024/01/16 00:58:00;;;;;;;148.17;49.33;;;1.80;98.20;;;;;;5067772;28;20203;-82
2024/01/16 01:00:30;;;;;;;153.47;55.17;;;1.70;98.20;;;;;;5069143;28;20215;-82
2024/01/16 01:02:58;;;;;;;132.47;50.07;;;1.70;98.20;;;;;;5065967;28;20196;-82
2024/01/16 01:05:28;;;;;;;153.37;51.97;;;1.80;98.30;;;;;;5063496;28;20302;-82
2024/01/16 01:07:56;;;;;;;166.93;54.17;;;1.70;98.30;;;;;;5068504;28;20218;-83
2024/01/16 01:10:24;;;;;;;364.83;59.63;;;1.70;98.30;;;;;;5064276;28;20213;-83
2024/01/16 01:12:53;;;;;;;136.77;54.83;;;1.70;98.30;;;;;;5054364;28;20304;-83
2024/01/16 01:15:21;;;;;;;134.80;58.43;;;1.70;98.30;;;;;;5069344;28;20205;-83
2024/01/16 01:17:49;;;;;;;145.53;52.03;;;1.60;98.30;;;;;;5088164;28;20198;-83
2024/01/16 01:20:18;;;;;;;112.27;55.13;;;1.60;98.40;;;;;;5084282;28;20229;-83
2024/01/16 01:22:46;;;;;;;138.17;55.73;;;1.50;98.40;;;;;;5063486;28;20222;-83
2024/01/16 01:25:14;;;;;;;118.87;55.93;;;1.50;98.40;;;;;;5069083;28;20215;-83
2024/01/16 01:27:41;;;;;;;96.43;56.73;;;1.40;98.50;;;;;;5067335;28;20205;-83
2024/01/16 01:30:11;;;;;;;83.17;50.87;;;1.40;98.50;;;;;;5072111;28;20225;-83
2024/01/16 01:32:39;;;;;;;98.57;54.60;;;1.40;98.50;;;;;;5055154;28;20657;-83
2024/01/16 01:35:07;;;;;;;107.13;50.50;;;1.40;98.60;;;;;;5071381;28;20222;-83
2024/01/16 01:37:35;;;;;;;125.73;55.37;;;1.30;98.50;;;;;;5075868;28;20264;-83
2024/01/16 01:40:02;;;;;;;112.37;55.23;;;1.30;98.40;;;;;;5059535;28;20213;-83
2024/01/16 01:42:29;;;;;;;105.20;54.53;;;1.30;98.40;;;;;;5048989;28;20291;-83
2024/01/16 01:44:57;;;;;;;105.93;55.00;;;1.20;98.30;;;;;;5070058;28;20205;-83
2024/01/16 01:47:24;;;;;;;98.93;51.67;;;1.10;98.20;;;;;;5061234;28;20207;-83
2024/01/16 01:49:52;;;;;;;103.73;53.70;;;1.10;98.20;;;;;;5082613;28;20220;-83
2024/01/16 01:52:19;;;;;;;108.47;54.27;;;1.10;98.20;;;;;;5070537;28;20201;-83
2024/01/16 01:54:47;;;;;;;91.07;51.43;;;1.00;98.20;;;;;;5087638;28;20289;-83
2024/01/16 01:57:14;;;;;;;98.77;51.80;;;1.00;98.10;;;;;;5088222;28;20222;-83
2024/01/16 01:59:42;;;;;;;167.03;59.77;;;1.00;98.10;;;;;;5093444;28;20594;-83
2024/01/16 02:02:11;;;;;;;86.23;51.60;;;0.90;98.00;;;;;;5075241;28;20222;-82
2024/01/16 02:04:40;;;;;;;86.33;52.57;;;0.90;98.00;;;;;;5068378;28;20248;-82
2024/01/16 02:07:08;;;;;;;112.17;52.97;;;0.90;98.00;;;;;;5093222;28;20197;-82
2024/01/16 02:09:37;;;;;;;84.80;52.43;;;0.80;98.00;;;;;;5097249;28;20266;-83
2024/01/16 02:12:07;;;;;;;89.33;53.77;;;0.80;98.00;;;;;;5077754;28;20657;-83
2024/01/16 02:14:34;;;;;;;142.23;56.00;;;0.80;98.10;;;;;;5099437;28;20206;-82
2024/01/16 02:17:02;;;;;;;152.57;55.40;;;0.90;98.10;;;;;;5090470;28;20215;-83
2024/01/16 02:19:29;;;;;;;95.67;53.57;;;0.90;98.00;;;;;;5107620;28;20195;-82
2024/01/16 02:21:59;;;;;;;107.00;54.27;;;0.90;98.00;;;;;;5089847;28;20627;-83
2024/01/16 02:24:27;;;;;;;181.10;58.33;;;0.90;98.10;;;;;;5089464;28;20213;-83
2024/01/16 02:26:54;;;;;;;152.20;58.27;;;0.90;98.20;;;;;;5095153;28;20219;-83
2024/01/16 02:29:21;;;;;;;120.47;52.90;;;0.90;98.20;;;;;;5074842;28;20210;-83
2024/01/16 02:31:49;;;;;;;205.73;59.33;;;1.00;98.40;;;;;;5079614;28;20221;-83
2024/01/16 02:34:16;;;;;;;246.73;60.43;;;1.10;98.50;;;;;;5086171;28;20207;-83
2024/01/16 02:36:43;;;;;;;188.67;58.30;;;1.10;98.60;;;;;;5088422;28;20264;-82
2024/01/16 02:39:11;;;;;;;308.47;65.33;;;1.20;98.60;;;;;;5092583;28;20196;-82
2024/01/16 02:41:38;;;;;;;163.43;59.00;;;1.20;98.60;;;;;;5116046;27;20260;-82
2024/01/16 02:44:06;;;;;;;292.53;54.90;;;1.20;98.60;;;;;;5096561;27;20199;-82
2024/01/16 02:46:34;;;;;;;137.30;54.00;;;1.20;98.70;;;;;;5096877;28;20295;-83
2024/01/16 02:49:01;;;;;;;145.13;61.23;;;1.30;98.80;;;;;;5094538;28;20237;-83
2024/01/16 02:51:29;;;;;;;150.63;57.00;;;1.30;98.90;;;;;;5094940;28;20229;-83
2024/01/16 02:53:56;;;;;;;195.13;57.33;;;1.40;99.00;;;;;;5095805;28;20542;-82
2024/01/16 02:56:23;;;;;;;125.50;53.20;;;1.40;99.00;;;;;;5090053;28;20605;-82
2024/01/16 02:58:51;;;;;;;214.07;59.13;;;1.40;99.00;;;;;;5084848;28;20642;-83
2024/01/16 03:01:18;;;;;;;132.30;55.57;;;1.40;99.10;;;;;;5076529;28;20195;-83
2024/01/16 03:03:46;;;;;;;158.53;59.43;;;1.50;99.10;;;;;;5088998;28;20249;-83
2024/01/16 03:06:25;;;;;;;131.13;58.87;;;1.50;99.20;;;;;;5086329;28;20274;-83
2024/01/16 03:08:53;;;;;;;124.37;58.57;;;1.50;99.30;;;;;;5092606;28;20235;-83
2024/01/16 03:11:20;;;;;;;239.30;60.00;;;1.50;99.30;;;;;;5091335;28;20279;-83
2024/01/16 03:13:49;;;;;;;151.97;56.30;;;1.50;99.30;;;;;;5082264;28;20206;-83
2024/01/16 03:16:16;;;;;;;358.00;61.97;;;1.60;99.20;;;;;;5095670;28;20211;-83
2024/01/16 03:18:44;;;;;;;289.10;58.87;;;1.50;99.20;;;;;;5105936;28;20191;-82
2024/01/16 03:21:14;;;;;;;237.37;55.13;;;1.50;99.10;;;;;;5094395;28;20243;-83
2024/01/16 03:23:41;;;;;;;274.00;60.23;;;1.50;99.20;;;;;;5097486;28;20206;-82
2024/01/16 03:26:16;;;;;;;144.13;54.83;;;1.50;99.10;;;;;;5090311;28;20198;-83
2024/01/16 03:28:45;;;;;;;201.97;57.10;;;1.40;99.10;;;;;;5084914;28;20230;-82
2024/01/16 03:31:14;;;;;;;160.10;57.10;;;1.40;99.10;;;;;;5078247;28;20207;-83
2024/01/16 03:33:45;;;;;;;149.47;57.40;;;1.40;99.30;;;;;;5089046;28;20205;-83
2024/01/16 03:36:13;;;;;;;130.20;55.53;;;1.40;99.40;;;;;;5098557;28;20624;-82
2024/01/16 03:38:43;;;;;;;117.60;55.03;;;1.50;99.40;;;;;;5075813;28;20205;-83
2024/01/16 03:41:12;;;;;;;124.63;56.07;;;1.50;99.50;;;;;;5073604;28;20206;-82
2024/01/16 03:43:40;;;;;;;155.03;54.90;;;1.50;99.50;;;;;;5073101;28;20220;-82
2024/01/16 03:46:10;;;;;;;124.77;53.30;;;1.50;99.50;;;;;;5099311;28;20682;-83
2024/01/16 03:48:37;;;;;;;136.03;53.90;;;1.50;99.30;;;;;;5080196;28;20576;-83
2024/01/16 03:51:06;;;;;;;284.03;57.43;;;1.50;99.20;;;;;;5097147;28;20595;-83
2024/01/16 03:53:33;;;;;;;171.27;53.30;;;1.40;99.20;;;;;;5077904;28;20698;-83
2024/01/16 03:56:01;;;;;;;201.07;53.83;;;1.40;99.20;;;;;;5089648;28;20294;-82
2024/01/16 03:58:28;;;;;;;348.53;59.90;;;1.30;99.20;;;;;;5111790;28;20205;-83
2024/01/16 04:00:56;;;;;;;119.07;53.17;;;1.30;99.30;;;;;;5075326;28;20199;-82
2024/01/16 04:03:23;;;;;;;121.17;50.90;;;1.30;99.30;;;;;;5082594;28;20202;-83
2024/01/16 04:05:51;;;;;;;258.63;52.80;;;1.20;99.40;;;;;;5090447;28;20211;-83
2024/01/16 04:08:18;;;;;;;147.27;52.30;;;1.20;99.30;;;;;;5091034;28;20645;-82
2024/01/16 04:10:46;;;;;;;248.43;55.47;;;1.20;99.30;;;;;;5100155;28;20198;-82
2024/01/16 04:13:13;;;;;;;98.90;50.13;;;1.10;99.30;;;;;;5079899;28;20213;-82
2024/01/16 04:15:40;;;;;;;103.27;51.53;;;1.10;99.20;;;;;;5091090;28;20206;-82
2024/01/16 04:18:08;;;;;;;94.37;49.83;;;1.00;99.20;;;;;;5085286;28;20221;-83
2024/01/16 04:20:35;;;;;;;84.93;47.67;;;1.00;99.30;;;;;;5092325;28;20301;-83
2024/01/16 04:23:03;;;;;;;91.70;51.43;;;1.00;99.30;;;;;;5102208;28;20223;-83
2024/01/16 04:25:31;;;;;;;91.47;49.23;;;1.00;99.40;;;;;;5077116;28;20267;-83
2024/01/16 04:27:58;;;;;;;93.07;49.70;;;1.00;99.40;;;;;;5086376;28;20209;-82
2024/01/16 04:30:29;;;;;;;85.80;49.00;;;1.00;99.40;;;;;;5076730;28;20263;-82
2024/01/16 04:32:56;;;;;;;84.53;50.10;;;1.00;99.40;;;;;;5107366;28;20210;-83
2024/01/16 04:35:24;;;;;;;84.53;48.37;;;1.00;99.40;;;;;;5087319;28;20262;-82
2024/01/16 04:37:51;;;;;;;72.80;45.23;;;1.00;99.30;;;;;;5071778;28;20231;-83
2024/01/16 04:40:19;;;;;;;97.90;49.03;;;1.00;99.30;;;;;;5082644;27;20261;-82
2024/01/16 04:42:46;;;;;;;118.10;50.70;;;1.00;99.30;;;;;;5080357;28;20635;-83
2024/01/16 04:45:14;;;;;;;98.43;50.60;;;0.90;99.10;;;;;;5087721;28;20338;-82
2024/01/16 04:47:42;;;;;;;130.70;56.03;;;0.90;99.00;;;;;;5091187;27;20240;-83
2024/01/16 04:50:09;;;;;;;98.80;52.67;;;0.80;99.10;;;;;;5087614;28;20623;-83
2024/01/16 04:52:37;;;;;;;94.07;48.30;;;0.80;99.10;;;;;;5085253;28;20206;-83
2024/01/16 04:55:05;;;;;;;167.83;52.73;;;0.80;99.10;;;;;;5073019;28;20224;-83
2024/01/16 04:57:33;;;;;;;132.70;50.97;;;0.80;99.00;;;;;;5073062;28;20366;-83
2024/01/16 05:00:01;;;;;;;134.27;48.90;;;0.70;98.90;;;;;;5077523;28;20192;-83
2024/01/16 05:02:29;;;;;;;257.87;52.57;;;0.70;99.00;;;;;;5090491;28;20213;-83
2024/01/16 05:04:58;;;;;;;179.93;46.77;;;0.70;99.30;;;;;;5077252;28;20202;-83
2024/01/16 05:07:26;;;;;;;280.47;49.90;;;0.70;99.10;;;;;;5072736;28;20225;-83
2024/01/16 05:09:55;;;;;;;78.37;48.57;;;0.60;99.10;;;;;;5095922;28;20217;-82
2024/01/16 05:12:22;;;;;;;152.43;51.30;;;0.70;99.20;;;;;;5085311;28;20239;-83
2024/01/16 05:14:50;;;;;;;228.50;53.00;;;0.70;99.20;;;;;;5079782;28;20210;-83
2024/01/16 05:17:18;;;;;;;125.33;51.20;;;0.70;99.20;;;;;;5073080;28;20251;-83
2024/01/16 05:19:45;;;;;;;126.77;54.50;;;0.70;99.10;;;;;;5070416;28;20206;-83
2024/01/16 05:22:12;;;;;;;90.60;50.30;;;0.70;99.20;;;;;;5100845;28;20243;-82
2024/01/16 05:24:40;;;;;;;101.03;49.53;;;0.70;99.20;;;;;;5088169;28;20940;-83
2024/01/16 05:27:08;;;;;;;85.27;45.37;;;0.70;99.20;;;;;;5092802;28;20204;-83
2024/01/16 05:29:39;;;;;;;120.10;50.67;;;0.70;99.20;;;;;;5094385;28;20221;-82
2024/01/16 05:32:10;;;;;;;92.17;48.63;;;0.70;99.50;;;;;;5090606;28;20207;-83
2024/01/16 05:34:38;;;;;;;90.83;47.07;;;0.70;99.10;;;;;;5090899;28;20278;-83
2024/01/16 05:37:05;;;;;;;107.87;46.63;;;0.70;99.10;;;;;;5098069;28;20591;-83
2024/01/16 05:39:33;;;;;;;119.00;46.00;;;0.70;99.10;;;;;;5075746;28;20208;-83
2024/01/16 05:42:00;;;;;;;107.10;47.43;;;0.70;98.90;;;;;;5077995;28;20666;-84
2024/01/16 05:44:27;;;;;;;70.07;43.73;;;0.60;98.90;;;;;;5096161;28;20257;-83
2024/01/16 05:46:54;;;;;;;77.47;43.67;;;0.60;98.80;;;;;;5093951;28;20550;-83
2024/01/16 05:49:22;;;;;;;72.83;46.03;;;0.60;98.80;;;;;;5090365;28;20263;-83
2024/01/16 05:51:49;;;;;;;71.67;45.30;;;0.60;98.80;;;;;;5083872;28;20201;-83
2024/01/16 05:54:17;;;;;;;73.73;45.03;;;0.60;98.90;;;;;;5094589;28;20205;-83
2024/01/16 05:56:44;;;;;;;92.07;42.37;;;0.50;99.00;;;;;;5093812;27;20206;-82
2024/01/16 05:59:12;;;;;;;93.57;44.63;;;0.60;99.00;;;;;;5085729;28;20207;-82
2024/01/16 06:01:39;;;;;;;98.43;46.60;;;0.50;99.00;;;;;;5088199;28;20217;-82
2024/01/16 06:04:06;;;;;;;94.23;46.13;;;0.50;98.90;;;;;;5078625;28;20204;-83
2024/01/16 06:06:36;;;;;;;163.07;45.07;;;0.50;99.00;;;;;;5088890;28;20186;-82
2024/01/16 06:09:05;;;;;;;91.77;46.20;;;0.50;99.00;;;;;;5091822;28;20234;-82
2024/01/16 06:11:34;;;;;;;168.97;46.73;;;0.50;98.90;;;;;;5094726;28;20537;-82
2024/01/16 06:14:02;;;;;;;101.30;47.43;;;0.50;98.90;;;;;;5076160;28;20249;-83
2024/01/16 06:16:29;;;;;;;73.67;44.93;;;0.50;99.00;;;;;;5071871;28;20245;-82
2024/01/16 06:18:57;;;;;;;74.73;45.03;;;0.50;99.00;;;;;;5088888;28;20269;-84
2024/01/16 06:21:24;;;;;;;96.50;47.70;;;0.50;99.00;;;;;;5089016;28;20210;-82
2024/01/16 06:23:52;;;;;;;106.10;48.47;;;0.40;99.00;;;;;;5078841;28;20298;-82
2024/01/16 06:26:20;;;;;;;120.57;47.47;;;0.40;99.00;;;;;;5088254;28;20200;-82
2024/01/16 06:28:48;;;;;;;174.43;50.63;;;0.40;99.00;;;;;;5086291;28;20210;-83
2024/01/16 06:31:17;;;;;;;214.47;50.40;;;0.40;98.90;;;;;;5077989;28;20274;-83
2024/01/16 06:33:45;;;;;;;99.83;46.30;;;0.40;98.90;;;;;;5080619;28;20201;-83
2024/01/16 06:36:13;;;;;;;79.90;43.60;;;0.30;98.90;;;;;;5093770;28;20209;-83
2024/01/16 06:38:41;;;;;;;88.03;45.20;;;0.30;98.90;;;;;;5082147;28;20322;-83
2024/01/16 06:41:09;;;;;;;91.10;48.57;;;0.20;98.90;;;;;;5097233;28;20410;-82
2024/01/16 06:43:37;;;;;;;102.77;48.23;;;0.20;98.90;;;;;;5089363;28;20626;-83
2024/01/16 06:46:05;;;;;;;88.27;46.87;;;0.20;98.80;;;;;;5091777;28;20702;-82
2024/01/16 06:48:36;;;;;;;90.47;46.27;;;0.20;98.80;;;;;;5077844;28;20276;-83
2024/01/16 06:51:10;;;;;;;114.20;45.77;;;0.20;98.80;;;;;;5091277;27;20233;-82
2024/01/16 06:53:39;;;;;;;78.30;45.27;;;0.10;98.70;;;;;;5078847;28;20214;-82
2024/01/16 06:56:08;;;;;;;74.00;44.40;;;0.10;98.80;;;;;;5106871;28;20198;-83
2024/01/16 06:58:36;;;;;;;112.67;47.27;;;0.10;98.70;;;;;;5083497;28;20276;-83
2024/01/16 07:01:04;;;;;;;166.30;46.83;;;0.00;98.70;;;;;;5075437;28;20200;-82
2024/01/16 07:03:33;;;;;;;285.03;49.27;;;0.00;98.80;;;;;;5077701;28;20308;-83
2024/01/16 07:06:02;;;;;;;87.67;46.73;;;0.00;98.70;;;;;;5099131;28;20204;-83
2024/01/16 07:08:31;;;;;;;115.73;48.87;;;-0.10;98.60;;;;;;5080708;28;20205;-83
2024/01/16 07:10:59;;;;;;;82.07;46.90;;;-0.10;98.70;;;;;;5092376;28;20199;-83
2024/01/16 07:13:27;;;;;;;79.87;43.67;;;-0.10;98.70;;;;;;5091763;28;20211;-83
2024/01/16 07:15:56;;;;;;;83.33;44.60;;;-0.10;98.80;;;;;;5076677;28;20240;-83
2024/01/16 07:18:23;;;;;;;75.63;44.67;;;-0.10;98.80;;;;;;5089876;28;20231;-83
2024/01/16 07:20:51;;;;;;;98.13;44.50;;;-0.10;99.10;;;;;;5094274;28;20289;-82
2024/01/16 07:23:19;;;;;;;74.50;41.57;;;-0.10;98.90;;;;;;5097782;28;20285;-82
2024/01/16 07:25:48;;;;;;;70.07;42.23;;;-0.10;98.80;;;;;;5097432;28;20227;-84
2024/01/16 07:28:16;;;;;;;64.20;39.70;;;-0.10;98.80;;;;;;5078064;28;20231;-82
2024/01/16 07:30:44;;;;;;;62.90;40.47;;;-0.10;98.80;;;;;;5093873;28;20700;-83
2024/01/16 07:33:12;;;;;;;62.67;38.47;;;0.00;98.90;;;;;;5092100;28;20197;-83
2024/01/16 07:35:41;;;;;;;58.93;38.13;;;0.00;98.90;;;;;;5075029;28;20221;-82
2024/01/16 07:38:09;;;;;;;56.40;37.43;;;0.10;98.90;;;;;;5096111;28;20218;-81
2024/01/16 07:40:41;;;;;;;57.73;38.20;;;0.10;98.80;;;;;;5078918;28;20190;-81
2024/01/16 07:43:09;;;;;;;60.27;39.37;;;0.20;98.80;;;;;;5086064;28;20197;-81
2024/01/16 07:45:37;;;;;;;59.50;38.87;;;0.30;98.90;;;;;;5074206;28;20213;-82
2024/01/16 07:48:05;;;;;;;61.03;39.60;;;0.30;98.90;;;;;;5097399;28;20320;-82
2024/01/16 07:50:35;;;;;;;57.40;38.53;;;0.50;99.00;;;;;;5085918;28;20244;-83
2024/01/16 07:53:03;;;;;;;54.23;36.00;;;0.50;98.90;;;;;;5095221;28;20197;-83
2024/01/16 07:55:33;;;;;;;60.87;36.47;;;0.60;98.80;;;;;;5076588;28;20275;-83
2024/01/16 07:58:03;;;;;;;61.23;39.27;;;0.60;98.70;;;;;;5091329;28;20219;-83
2024/01/16 08:00:31;;;;;;;60.00;38.53;;;0.60;98.50;;;;;;5091126;28;20222;-83
2024/01/16 08:03:02;;;;;;;62.23;38.40;;;0.60;98.40;;;;;;5090509;28;20548;-82
2024/01/16 08:05:34;;;;;;;55.63;38.13;;;0.60;98.40;;;;;;5087483;28;20661;-83
2024/01/16 08:08:02;;;;;;;52.30;37.33;;;0.60;98.50;;;;;;5076575;28;20771;-83
2024/01/16 08:10:30;;;;;;;51.73;37.63;;;0.70;98.50;;;;;;5088212;28;20207;-82
2024/01/16 08:12:58;;;;;;;57.87;36.73;;;0.70;98.60;;;;;;5078857;28;20198;-83
2024/01/16 08:15:26;;;;;;;55.23;38.27;;;0.90;98.70;;;;;;5093917;28;20206;-82
2024/01/16 08:17:55;;;;;;;59.53;38.10;;;0.90;98.70;;;;;;5083250;28;20657;-82
2024/01/16 08:20:23;;;;;;;55.60;37.27;;;1.10;99.00;;;;;;5116738;28;20208;-83
2024/01/16 08:22:50;;;;;;;58.47;39.10;;;1.20;98.80;;;;;;5091188;28;20671;-83
2024/01/16 08:25:18;;;;;;;55.40;36.50;;;1.30;98.80;;;;;;5087641;28;20207;-83
2024/01/16 08:27:46;;;;;;;59.63;40.27;;;1.40;98.80;;;;;;5082969;28;20203;-83
2024/01/16 08:30:14;;;;;;;57.73;38.43;;;1.60;98.80;;;;;;5087859;28;20205;-83
2024/01/16 08:32:42;;;;;;;60.83;39.60;;;1.70;98.70;;;;;;5081719;28;20644;-83
2024/01/16 08:35:10;;;;;;;59.63;38.33;;;1.80;98.60;;;;;;5070968;28;20215;-83
2024/01/16 08:37:38;;;;;;;57.80;38.63;;;1.90;98.50;;;;;;5099214;28;20532;-82
2024/01/16 08:40:06;;;;;;;57.30;39.43;;;2.00;98.40;;;;;;5091997;27;20268;-83
2024/01/16 08:42:34;;;;;;;54.00;38.80;;;2.10;98.40;;;;;;5080410;28;20213;-83
2024/01/16 08:45:01;;;;;;;53.67;39.07;;;2.20;98.30;;;;;;5100128;28;20208;-83
2024/01/16 08:47:32;;;;;;;57.37;41.50;;;2.30;98.30;;;;;;5102917;28;20210;-83
2024/01/16 08:50:00;;;;;;;58.40;40.97;;;2.40;98.30;;;;;;5090618;28;20277;-82
2024/01/16 08:52:27;;;;;;;62.97;42.10;;;2.60;98.40;;;;;;5094854;28;20226;-82
2024/01/16 08:54:58;;;;;;;60.07;40.20;;;2.70;98.50;;;;;;5074517;28;20217;-82
2024/01/16 08:57:26;;;;;;;61.37;41.00;;;2.90;98.50;;;;;;5091788;28;20289;-82
2024/01/16 08:59:57;;;;;;;69.27;43.27;;;3.10;98.50;;;;;;5078824;28;20232;-83
2024/01/16 09:02:28;;;;;;;63.43;41.80;;;3.20;98.30;;;;;;5090056;28;20584;-82
2024/01/16 09:04:58;;;;;;;60.80;42.03;;;3.30;98.30;;;;;;5071861;28;20296;-82
2024/01/16 09:07:27;;;;;;;59.70;40.77;;;3.40;98.10;;;;;;5098689;28;20195;-82
2024/01/16 09:09:54;;;;;;;63.57;41.90;;;3.60;98.10;;;;;;5075294;28;20207;-82
2024/01/16 09:12:22;;;;;;;62.53;40.10;;;3.60;98.10;;;;;;5077027;28;20300;-83
2024/01/16 09:14:49;;;;;;;66.23;41.80;;;3.80;98.20;;;;;;5091835;28;20205;-82
2024/01/16 09:17:21;;;;;;;60.57;40.57;;;3.90;98.20;;;;;;5092825;28;20203;-81
2024/01/16 09:19:51;;;;;;;62.37;42.53;;;4.10;98.30;;;;;;5091663;28;20669;-81
2024/01/16 09:22:19;;;;;;;60.90;40.93;;;4.20;98.40;;;;;;5091514;28;20558;-81
2024/01/16 09:24:47;;;;;;;61.40;43.63;;;4.40;98.50;;;;;;5076438;28;20202;-81
2024/01/16 09:27:16;;;;;;;63.20;42.57;;;4.60;98.50;;;;;;5092599;28;20258;-81
2024/01/16 09:29:43;;;;;;;67.10;42.93;;;4.70;98.60;;;;;;5072700;28;20212;-81
2024/01/16 09:32:11;;;;;;;63.10;43.27;;;4.90;98.60;;;;;;5082301;28;20275;-81
2024/01/16 09:34:39;;;;;;;66.33;42.73;;;5.00;98.50;;;;;;5079025;28;20582;-81
2024/01/16 09:37:10;;;;;;;66.20;44.80;;;5.20;98.50;;;;;;5096006;28;20200;-81
2024/01/16 09:39:37;;;;;;;65.03;44.27;;;5.30;98.50;;;;;;5082768;28;20209;-81
2024/01/16 09:42:05;;;;;;;59.83;40.30;;;5.40;98.50;;;;;;5085249;28;20200;-81
2024/01/16 09:44:34;;;;;;;60.27;40.40;;;5.50;98.50;;;;;;5105310;28;20204;-81
2024/01/16 09:47:05;;;;;;;61.97;40.90;;;5.60;98.30;;;;;;5107825;28;20201;-81
2024/01/16 09:49:33;;;;;;;49.23;36.13;;;5.70;98.20;;;;;;5090568;28;20237;-81
2024/01/16 09:52:01;;;;;;;49.40;35.47;;;5.80;98.10;;;;;;5084964;28;20264;-81
2024/01/16 09:54:30;;;;;;;50.93;34.57;;;5.80;98.00;;;;;;5109429;28;20227;-81
2024/01/16 09:57:00;;;;;;;51.97;34.30;;;5.90;97.80;;;;;;5089366;28;20203;-82
2024/01/16 09:59:30;;;;;;;51.90;35.73;;;5.90;97.60;;;;;;5098439;28;20231;-81
2024/01/16 10:02:00;;;;;;;51.33;35.57;;;5.90;97.40;;;;;;5067790;28;20212;-82
2024/01/16 10:04:29;;;;;;;51.80;35.27;;;6.00;97.50;;;;;;5088796;28;20213;-82
2024/01/16 10:07:04;;;;;;;53.40;36.00;;;6.00;97.40;;;;;;5076738;28;20197;-81
2024/01/16 10:09:33;;;;;;;52.53;34.43;;;6.10;97.50;;;;;;5091051;28;20205;-81
2024/01/16 10:12:00;;;;;;;50.50;34.87;;;6.10;97.40;;;;;;5073438;28;20287;-81
2024/01/16 10:14:29;;;;;;;48.60;34.50;;;6.20;97.10;;;;;;5088879;28;20226;-81
2024/01/16 10:17:02;;;;;;;46.47;33.00;;;6.30;97.00;;;;;;5075010;28;20212;-81
2024/01/16 10:19:30;;;;;;;50.63;33.10;;;6.40;97.10;;;;;;5079610;28;20284;-80
2024/01/16 10:22:12;;;;;;;46.87;33.50;;;6.40;96.90;;;;;;5109990;28;20196;-81
2024/01/16 10:24:40;;;;;;;43.97;31.57;;;6.50;96.80;;;;;;5095365;27;20189;-81
2024/01/16 10:27:08;;;;;;;45.83;32.50;;;6.60;96.80;;;;;;5108905;28;20204;-81
2024/01/16 10:29:36;;;;;;;43.67;30.60;;;6.80;96.80;;;;;;5075236;28;20199;-82
2024/01/16 10:32:37;;;;;;;45.73;31.57;;;6.90;96.40;;;;;;5093884;28;20201;-82
2024/01/16 10:35:10;;;;;;;44.37;31.70;;;7.00;95.90;;;;;;5078687;28;20204;-81
2024/01/16 10:37:50;;;;;;;45.27;31.17;;;7.10;95.50;;;;;;5094160;28;20726;-81
2024/01/16 10:40:18;;;;;;;45.80;30.40;;;7.10;95.50;;;;;;5075254;28;20198;-81
2024/01/16 10:43:01;;;;;;;39.00;27.57;;;7.20;95.70;;;;;;5104563;28;20186;-81
2024/01/16 10:45:32;;;;;;;43.07;28.57;;;7.30;95.40;;;;;;5079037;28;20216;-83
2024/01/16 10:48:05;;;;;;;39.03;26.60;;;7.40;95.00;;;;;;5094675;28;20691;-82
2024/01/16 10:50:37;;;;;;;40.90;26.97;;;7.40;94.80;;;;;;5077331;28;20193;-82
2024/01/16 10:53:07;;;;;;;39.57;25.40;;;7.40;94.50;;;;;;5103165;28;20201;-82
2024/01/16 10:55:56;;;;;;;34.87;24.23;;;7.40;94.30;;;;;;5075708;28;20205;-82
2024/01/16 10:58:25;;;;;;;37.00;25.17;;;7.40;93.90;;;;;;5108539;28;20228;-82
2024/01/16 11:00:54;;;;;;;31.17;23.10;;;7.40;94.00;;;;;;5091938;28;20228;-83
2024/01/16 11:03:30;;;;;;;33.43;22.97;;;7.40;94.10;;;;;;5087973;28;20544;-84
2024/01/16 11:05:59;;;;;;;30.47;21.20;;;7.40;94.30;;;;;;5071002;28;20195;-83
2024/01/16 11:08:32;;;;;;;30.83;21.90;;;7.40;94.00;;;;;;5118458;28;20196;-82
2024/01/16 11:11:04;;;;;;;27.67;20.47;;;7.50;94.30;;;;;;5105077;27;20674;-83
2024/01/16 11:13:34;;;;;;;30.97;22.60;;;7.50;94.30;;;;;;5081989;28;20251;-82
2024/01/16 11:16:07;;;;;;;32.97;21.60;;;7.50;93.90;;;;;;5092323;28;20587;-83
2024/01/16 11:18:35;;;;;;;31.10;22.80;;;7.50;93.90;;;;;;5092559;28;20243;-82
2024/01/16 11:21:07;;;;;;;30.23;21.30;;;7.50;93.90;;;;;;5090298;28;20205;-82
2024/01/16 11:23:39;;;;;;;31.33;22.07;;;7.50;93.80;;;;;;5085608;28;20215;-82
2024/01/16 11:26:39;;;;;;;30.33;20.87;;;7.50;94.20;;;;;;5093440;28;20197;-82
2024/01/16 11:29:29;;;;;;;30.27;22.07;;;7.70;94.10;;;;;;5065088;28;20205;-82
2024/01/16 11:31:58;;;;;;;31.40;21.13;;;7.90;94.30;;;;;;5095422;28;20287;-82
2024/01/16 11:34:41;;;;;;;31.30;23.13;;;8.00;94.10;;;;;;5086102;28;20205;-83
2024/01/16 11:37:11;;;;;;;31.17;21.57;;;8.20;94.00;;;;;;5105053;28;20337;-81
2024/01/16 11:39:40;;;;;;;29.70;21.90;;;8.20;93.50;;;;;;5092246;28;20550;-81
2024/01/16 11:42:09;;;;;;;31.47;22.60;;;8.20;93.30;;;;;;5095882;28;20212;-81
2024/01/16 11:44:50;;;;;;;34.40;22.80;;;8.20;93.40;;;;;;5101820;28;20195;-82
2024/01/16 11:47:19;;;;;;;30.00;21.73;;;8.20;93.40;;;;;;5088505;28;20197;-82
2024/01/16 11:50:07;;;;;;;28.07;21.87;;;8.20;93.40;;;;;;5076270;28;20641;-82
2024/01/16 11:52:43;;;;;;;30.37;20.93;;;8.30;93.30;;;;;;5098321;28;20203;-81
2024/01/16 11:55:35;;;;;;;29.33;20.47;;;8.50;93.40;;;;;;5085191;28;20193;-83
2024/01/16 11:58:21;;;;;;;27.97;20.90;;;8.60;92.90;;;;;;5089247;28;20699;-82
2024/01/16 12:00:53;;;;;;;30.73;21.57;;;8.70;92.50;;;;;;5078067;28;20223;-83
2024/01/16 12:03:22;;;;;;;33.97;22.00;;;8.70;92.30;;;;;;5087609;28;20251;-82
2024/01/16 12:06:02;;;;;;;29.70;20.77;;;8.70;92.40;;;;;;5088449;28;20651;-83
2024/01/16 12:08:31;;;;;;;29.47;20.70;;;8.70;92.50;;;;;;5085006;28;20202;-81
2024/01/16 12:11:00;;;;;;;34.03;23.33;;;8.70;92.50;;;;;;5079588;28;20234;-81
2024/01/16 12:13:28;;;;;;;32.60;22.87;;;8.70;93.10;;;;;;5076524;28;20200;-81
2024/01/16 12:16:04;;;;;;;30.63;22.47;;;8.70;92.80;;;;;;5098068;28;20614;-82
2024/01/16 12:18:32;;;;;;;34.33;24.10;;;8.80;92.60;;;;;;5068984;28;20204;-81
2024/01/16 12:21:11;;;;;;;41.80;23.13;;;8.80;92.30;;;;;;5089191;28;20198;-82
2024/01/16 12:23:39;;;;;;;31.93;23.23;;;8.80;92.50;;;;;;5083629;28;20302;-82
2024/01/16 12:26:23;;;;;;;31.47;22.57;;;8.80;92.40;;;;;;5110601;28;20220;-82
2024/01/16 12:28:55;;;;;;;33.40;22.17;;;8.80;92.30;;;;;;5093950;28;20594;-82
2024/01/16 12:31:28;;;;;;;35.13;23.00;;;8.80;92.50;;;;;;5090173;28;20204;-82
2024/01/16 12:34:09;;;;;;;27.90;21.17;;;8.70;92.70;;;;;;5082376;28;20707;-83
2024/01/16 12:36:38;;;;;;;30.63;21.80;;;8.70;92.80;;;;;;5089811;28;20211;-82
2024/01/16 12:39:06;;;;;;;29.20;21.87;;;8.70;93.00;;;;;;5092401;28;20221;-82
2024/01/16 12:41:45;;;;;;;31.27;22.17;;;8.70;93.20;;;;;;5090899;28;20221;-84
2024/01/16 12:44:13;;;;;;;33.90;23.23;;;8.60;93.20;;;;;;5093301;28;20241;-82